Aérodrome :







RETROUVEZ-NOUS SUR...

 
LOGIN :

S'inscrire | Disclaimer

   EN    FR    IT 

 









Légende :    VFR   VFR Marginal   IFR   IFR Intensif   IFR Très Intensif
Visi : 
Plafond : 
>= 8 km
>= 3000ft
5 à 8 km
1000 à 3000 ft
1500m à 5 km
500 à 1000 ft
800 à 1500m
200 à 500 ft
< 800m
< 200 ft
Symboles :   Orages  Brouillard  Fortes neiges  Fortes précipitations  Vent > 20 kt






- Altitude de l'aérodrome : 199 ft
- Code IATA : YRQ


CYRQ - Trois-Rivières

DERNIER METAR :
  • 031000Z AUTO 02005KT 9SM CLR 16/15 A2988 RMK SLP118 DENSITY ALT 300FT

METARs EXPIRÉS :
  • 030900Z AUTO 35002KT 9SM CLR 15/15 A2987 RMK SLP117 DENSITY ALT 200FT
  • 030800Z AUTO 05005KT 9SM CLR 15/14 A2986 RMK SLP113 DENSITY ALT 200FT

TAF TAF CYRQ
Valide du 03 à 08h jusqu'au 03 à 20h UTC


030738Z 0308/0320 03005KT P6SM FEW030
FM031900 VRB03KT P6SM SCT040 RMK FCST BASED ON AUTO OBS. NXT FCST BY 031400Z
FIR CZUL / Amérique du Nord



MET'MAP, la Météo Aéronautique d'un coup d'oeil ! - Copyright ORBIFLY Décembre 2007 - Disclaimer

ORBIFLY MET'MAP TEAM :

Programmation & Développement : Alexandra Zaïnal
Sur une idée originale de : Baudouin d'Aumeries
Assistance à la programmation : Marc-Olivier Méhu
Soutien technique & logistique : Manuel Goepfert

Contact : metmap@orbifly.com




SOURCES & CREDITS :

   NOAA